sensor_id;sensor_type;location;lat;lon;timestamp;P1;durP1;ratioP1;P2;durP2;ratioP2
5553;SDS011;2800;49.528;8.666;2024-03-23T00:53:26;16.63;;;10.73;;
5553;SDS011;2800;49.528;8.666;2024-03-23T00:55:52;14.60;;;10.27;;
5553;SDS011;2800;49.528;8.666;2024-03-23T00:58:18;14.10;;;9.83;;
5553;SDS011;2800;49.528;8.666;2024-03-23T01:00:43;15.47;;;10.43;;
5553;SDS011;2800;49.528;8.666;2024-03-23T01:03:09;15.73;;;9.47;;
5553;SDS011;2800;49.528;8.666;2024-03-23T01:05:34;12.87;;;9.73;;
5553;SDS011;2800;49.528;8.666;2024-03-23T01:08:00;14.60;;;9.97;;
5553;SDS011;2800;49.528;8.666;2024-03-23T01:10:25;16.83;;;9.90;;
5553;SDS011;2800;49.528;8.666;2024-03-23T01:12:51;13.20;;;9.73;;
5553;SDS011;2800;49.528;8.666;2024-03-23T01:15:16;16.27;;;10.43;;
5553;SDS011;2800;49.528;8.666;2024-03-23T01:17:42;20.27;;;9.40;;
5553;SDS011;2800;49.528;8.666;2024-03-23T01:20:07;13.37;;;9.23;;
5553;SDS011;2800;49.528;8.666;2024-03-23T01:22:33;14.23;;;9.70;;
5553;SDS011;2800;49.528;8.666;2024-03-23T01:24:58;14.73;;;9.77;;
5553;SDS011;2800;49.528;8.666;2024-03-23T01:27:24;12.87;;;8.90;;
5553;SDS011;2800;49.528;8.666;2024-03-23T01:29:49;12.90;;;9.63;;
5553;SDS011;2800;49.528;8.666;2024-03-23T01:32:17;13.90;;;9.10;;
5553;SDS011;2800;49.528;8.666;2024-03-23T01:34:43;13.13;;;9.67;;
5553;SDS011;2800;49.528;8.666;2024-03-23T01:37:09;13.30;;;9.30;;
5553;SDS011;2800;49.528;8.666;2024-03-23T01:39:34;16.03;;;8.80;;
5553;SDS011;2800;49.528;8.666;2024-03-23T01:42:00;15.00;;;9.07;;
5553;SDS011;2800;49.528;8.666;2024-03-23T01:44:25;12.10;;;8.30;;
5553;SDS011;2800;49.528;8.666;2024-03-23T01:46:51;18.90;;;9.23;;
5553;SDS011;2800;49.528;8.666;2024-03-23T01:49:16;12.90;;;9.67;;
5553;SDS011;2800;49.528;8.666;2024-03-23T01:51:42;13.50;;;8.90;;
5553;SDS011;2800;49.528;8.666;2024-03-23T01:54:09;11.40;;;8.37;;
5553;SDS011;2800;49.528;8.666;2024-03-23T01:56:35;12.23;;;8.27;;
5553;SDS011;2800;49.528;8.666;2024-03-23T01:59:10;13.50;;;8.27;;
5553;SDS011;2800;49.528;8.666;2024-03-23T02:01:36;13.47;;;8.93;;
5553;SDS011;2800;49.528;8.666;2024-03-23T02:04:02;12.97;;;9.00;;
5553;SDS011;2800;49.528;8.666;2024-03-23T02:06:28;12.60;;;9.03;;
5553;SDS011;2800;49.528;8.666;2024-03-23T02:08:57;13.57;;;8.63;;
5553;SDS011;2800;49.528;8.666;2024-03-23T02:11:23;11.40;;;8.30;;
5553;SDS011;2800;49.528;8.666;2024-03-23T02:13:48;14.60;;;8.60;;
5553;SDS011;2800;49.528;8.666;2024-03-23T02:16:14;18.27;;;8.90;;
5553;SDS011;2800;49.528;8.666;2024-03-23T02:18:39;13.07;;;9.10;;
5553;SDS011;2800;49.528;8.666;2024-03-23T02:21:05;13.37;;;9.57;;
5553;SDS011;2800;49.528;8.666;2024-03-23T02:23:30;16.10;;;9.70;;
5553;SDS011;2800;49.528;8.666;2024-03-23T02:25:56;15.10;;;9.20;;
5553;SDS011;2800;49.528;8.666;2024-03-23T02:28:21;11.37;;;8.43;;
5553;SDS011;2800;49.528;8.666;2024-03-23T02:30:50;18.47;;;9.73;;
5553;SDS011;2800;49.528;8.666;2024-03-23T02:33:16;22.00;;;8.80;;
5553;SDS011;2800;49.528;8.666;2024-03-23T02:35:43;13.97;;;9.40;;
5553;SDS011;2800;49.528;8.666;2024-03-23T02:38:10;12.17;;;8.57;;
5553;SDS011;2800;49.528;8.666;2024-03-23T02:40:36;12.00;;;8.37;;
5553;SDS011;2800;49.528;8.666;2024-03-23T02:43:02;16.80;;;9.17;;
5553;SDS011;2800;49.528;8.666;2024-03-23T02:45:28;15.73;;;9.70;;
5553;SDS011;2800;49.528;8.666;2024-03-23T02:47:54;11.50;;;9.43;;
5553;SDS011;2800;49.528;8.666;2024-03-23T02:50:20;15.07;;;10.03;;
5553;SDS011;2800;49.528;8.666;2024-03-23T02:52:45;16.60;;;9.67;;
5553;SDS011;2800;49.528;8.666;2024-03-23T02:55:11;14.90;;;10.43;;
5553;SDS011;2800;49.528;8.666;2024-03-23T02:57:37;14.53;;;10.13;;
5553;SDS011;2800;49.528;8.666;2024-03-23T03:00:03;18.87;;;10.70;;
5553;SDS011;2800;49.528;8.666;2024-03-23T03:02:30;16.90;;;10.60;;
5553;SDS011;2800;49.528;8.666;2024-03-23T03:04:55;20.43;;;11.87;;
5553;SDS011;2800;49.528;8.666;2024-03-23T03:07:21;13.30;;;10.13;;
5553;SDS011;2800;49.528;8.666;2024-03-23T03:09:46;16.10;;;11.17;;
5553;SDS011;2800;49.528;8.666;2024-03-23T03:12:12;18.73;;;11.60;;
5553;SDS011;2800;49.528;8.666;2024-03-23T03:14:37;16.70;;;10.37;;
5553;SDS011;2800;49.528;8.666;2024-03-23T03:17:03;15.40;;;10.23;;
5553;SDS011;2800;49.528;8.666;2024-03-23T03:19:28;18.43;;;11.37;;
5553;SDS011;2800;49.528;8.666;2024-03-23T03:21:54;14.57;;;10.90;;
5553;SDS011;2800;49.528;8.666;2024-03-23T03:24:20;15.30;;;11.70;;
5553;SDS011;2800;49.528;8.666;2024-03-23T03:26:46;17.57;;;9.93;;
5553;SDS011;2800;49.528;8.666;2024-03-23T03:29:11;14.80;;;10.70;;
5553;SDS011;2800;49.528;8.666;2024-03-23T03:31:38;16.47;;;11.73;;
5553;SDS011;2800;49.528;8.666;2024-03-23T03:34:04;17.40;;;12.20;;
5553;SDS011;2800;49.528;8.666;2024-03-23T03:36:29;16.30;;;11.30;;
5553;SDS011;2800;49.528;8.666;2024-03-23T03:38:55;17.10;;;11.80;;
5553;SDS011;2800;49.528;8.666;2024-03-23T03:41:21;16.47;;;11.50;;
5553;SDS011;2800;49.528;8.666;2024-03-23T03:43:46;17.03;;;12.43;;
5553;SDS011;2800;49.528;8.666;2024-03-23T03:46:12;15.23;;;11.33;;
5553;SDS011;2800;49.528;8.666;2024-03-23T03:48:37;15.67;;;11.10;;
5553;SDS011;2800;49.528;8.666;2024-03-23T03:51:03;14.43;;;11.50;;
5553;SDS011;2800;49.528;8.666;2024-03-23T03:53:29;16.23;;;11.60;;
5553;SDS011;2800;49.528;8.666;2024-03-23T03:55:55;19.03;;;12.50;;
5553;SDS011;2800;49.528;8.666;2024-03-23T03:58:20;17.80;;;12.90;;
5553;SDS011;2800;49.528;8.666;2024-03-23T04:00:46;14.70;;;12.60;;
5553;SDS011;2800;49.528;8.666;2024-03-23T04:03:11;15.07;;;11.87;;
5553;SDS011;2800;49.528;8.666;2024-03-23T04:05:37;16.23;;;12.27;;
5553;SDS011;2800;49.528;8.666;2024-03-23T04:08:03;19.50;;;13.63;;
5553;SDS011;2800;49.528;8.666;2024-03-23T04:10:29;19.33;;;12.93;;
5553;SDS011;2800;49.528;8.666;2024-03-23T04:12:55;19.03;;;13.47;;
5553;SDS011;2800;49.528;8.666;2024-03-23T04:15:21;19.70;;;14.10;;
5553;SDS011;2800;49.528;8.666;2024-03-23T04:17:46;17.10;;;13.60;;
5553;SDS011;2800;49.528;8.666;2024-03-23T04:20:12;17.70;;;12.93;;
5553;SDS011;2800;49.528;8.666;2024-03-23T04:22:41;21.83;;;14.50;;
5553;SDS011;2800;49.528;8.666;2024-03-23T04:25:10;24.20;;;13.83;;
5553;SDS011;2800;49.528;8.666;2024-03-23T04:27:38;25.97;;;14.47;;
5553;SDS011;2800;49.528;8.666;2024-03-23T04:30:05;23.10;;;15.30;;
5553;SDS011;2800;49.528;8.666;2024-03-23T04:32:35;21.67;;;14.73;;
5553;SDS011;2800;49.528;8.666;2024-03-23T04:35:01;24.33;;;15.90;;
5553;SDS011;2800;49.528;8.666;2024-03-23T04:37:28;23.93;;;14.60;;
5553;SDS011;2800;49.528;8.666;2024-03-23T04:39:53;22.80;;;16.03;;
5553;SDS011;2800;49.528;8.666;2024-03-23T04:42:19;19.30;;;15.37;;
5553;SDS011;2800;49.528;8.666;2024-03-23T04:44:44;21.30;;;16.37;;
5553;SDS011;2800;49.528;8.666;2024-03-23T04:47:10;22.87;;;16.50;;
5553;SDS011;2800;49.528;8.666;2024-03-23T04:49:36;23.70;;;16.90;;
5553;SDS011;2800;49.528;8.666;2024-03-23T04:52:02;24.40;;;17.93;;
5553;SDS011;2800;49.528;8.666;2024-03-23T04:54:29;26.40;;;18.13;;
5553;SDS011;2800;49.528;8.666;2024-03-23T04:56:54;27.10;;;18.13;;
5553;SDS011;2800;49.528;8.666;2024-03-23T04:59:20;22.67;;;16.10;;
5553;SDS011;2800;49.528;8.666;2024-03-23T05:01:46;22.83;;;17.30;;
5553;SDS011;2800;49.528;8.666;2024-03-23T05:04:12;22.80;;;16.57;;
5553;SDS011;2800;49.528;8.666;2024-03-23T05:06:37;17.97;;;13.40;;
5553;SDS011;2800;49.528;8.666;2024-03-23T05:09:03;15.83;;;12.20;;
5553;SDS011;2800;49.528;8.666;2024-03-23T05:11:32;13.73;;;10.30;;
5553;SDS011;2800;49.528;8.666;2024-03-23T05:13:58;12.43;;;9.53;;
5553;SDS011;2800;49.528;8.666;2024-03-23T05:16:24;11.87;;;7.73;;
5553;SDS011;2800;49.528;8.666;2024-03-23T05:18:51;12.13;;;8.60;;
5553;SDS011;2800;49.528;8.666;2024-03-23T05:21:16;10.03;;;6.93;;
5553;SDS011;2800;49.528;8.666;2024-03-23T05:23:42;10.63;;;6.07;;
5553;SDS011;2800;49.528;8.666;2024-03-23T05:26:08;10.40;;;6.60;;
5553;SDS011;2800;49.528;8.666;2024-03-23T05:28:34;10.23;;;8.60;;
5553;SDS011;2800;49.528;8.666;2024-03-23T05:31:00;10.77;;;8.30;;
5553;SDS011;2800;49.528;8.666;2024-03-23T05:33:25;10.53;;;7.60;;
5553;SDS011;2800;49.528;8.666;2024-03-23T05:35:57;10.37;;;7.73;;
5553;SDS011;2800;49.528;8.666;2024-03-23T05:38:23;13.43;;;7.60;;
5553;SDS011;2800;49.528;8.666;2024-03-23T05:40:55;9.17;;;6.87;;
5553;SDS011;2800;49.528;8.666;2024-03-23T05:43:24;8.57;;;6.30;;
5553;SDS011;2800;49.528;8.666;2024-03-23T05:45:57;9.40;;;6.90;;
5553;SDS011;2800;49.528;8.666;2024-03-23T05:48:23;7.97;;;6.00;;
5553;SDS011;2800;49.528;8.666;2024-03-23T05:50:50;9.50;;;5.90;;
5553;SDS011;2800;49.528;8.666;2024-03-23T05:53:16;7.17;;;4.93;;
5553;SDS011;2800;49.528;8.666;2024-03-23T05:55:42;7.77;;;5.07;;
5553;SDS011;2800;49.528;8.666;2024-03-23T05:58:08;10.70;;;4.77;;
5553;SDS011;2800;49.528;8.666;2024-03-23T06:00:33;7.77;;;4.90;;
5553;SDS011;2800;49.528;8.666;2024-03-23T06:02:59;7.10;;;5.03;;
5553;SDS011;2800;49.528;8.666;2024-03-23T06:05:24;6.43;;;4.47;;
5553;SDS011;2800;49.528;8.666;2024-03-23T06:07:50;6.87;;;4.97;;
5553;SDS011;2800;49.528;8.666;2024-03-23T06:10:15;7.20;;;5.03;;
5553;SDS011;2800;49.528;8.666;2024-03-23T06:12:41;8.97;;;5.00;;
5553;SDS011;2800;49.528;8.666;2024-03-23T06:15:07;5.90;;;4.60;;
5553;SDS011;2800;49.528;8.666;2024-03-23T06:17:35;6.33;;;4.00;;
5553;SDS011;2800;49.528;8.666;2024-03-23T06:20:01;6.17;;;4.43;;
5553;SDS011;2800;49.528;8.666;2024-03-23T06:22:27;8.77;;;4.70;;
5553;SDS011;2800;49.528;8.666;2024-03-23T06:24:53;5.00;;;3.63;;
5553;SDS011;2800;49.528;8.666;2024-03-23T06:27:18;6.43;;;3.83;;
5553;SDS011;2800;49.528;8.666;2024-03-23T06:29:44;5.27;;;3.33;;
5553;SDS011;2800;49.528;8.666;2024-03-23T06:32:09;5.07;;;3.30;;
5553;SDS011;2800;49.528;8.666;2024-03-23T06:34:35;5.53;;;3.20;;
5553;SDS011;2800;49.528;8.666;2024-03-23T06:37:00;5.93;;;3.70;;
5553;SDS011;2800;49.528;8.666;2024-03-23T06:39:26;4.40;;;3.03;;
5553;SDS011;2800;49.528;8.666;2024-03-23T06:41:52;4.67;;;3.17;;
5553;SDS011;2800;49.528;8.666;2024-03-23T06:44:19;6.93;;;3.37;;
5553;SDS011;2800;49.528;8.666;2024-03-23T06:46:45;5.63;;;3.10;;
5553;SDS011;2800;49.528;8.666;2024-03-23T06:49:11;4.40;;;2.60;;
5553;SDS011;2800;49.528;8.666;2024-03-23T06:51:36;3.80;;;2.20;;
5553;SDS011;2800;49.528;8.666;2024-03-23T06:54:03;4.67;;;2.60;;
5553;SDS011;2800;49.528;8.666;2024-03-23T06:56:29;7.30;;;2.20;;
5553;SDS011;2800;49.528;8.666;2024-03-23T06:58:54;3.80;;;2.00;;
5553;SDS011;2800;49.528;8.666;2024-03-23T07:01:21;3.10;;;1.40;;
5553;SDS011;2800;49.528;8.666;2024-03-23T07:03:46;5.87;;;1.50;;
5553;SDS011;2800;49.528;8.666;2024-03-23T07:06:12;3.03;;;1.33;;
5553;SDS011;2800;49.528;8.666;2024-03-23T07:08:37;3.00;;;1.40;;
5553;SDS011;2800;49.528;8.666;2024-03-23T07:11:03;3.13;;;1.60;;
5553;SDS011;2800;49.528;8.666;2024-03-23T07:13:29;3.23;;;1.70;;
5553;SDS011;2800;49.528;8.666;2024-03-23T07:15:55;2.90;;;1.40;;
5553;SDS011;2800;49.528;8.666;2024-03-23T07:18:22;3.40;;;1.50;;
5553;SDS011;2800;49.528;8.666;2024-03-23T07:20:54;2.93;;;1.40;;
5553;SDS011;2800;49.528;8.666;2024-03-23T07:23:21;3.03;;;1.40;;
5553;SDS011;2800;49.528;8.666;2024-03-23T07:28:22;3.17;;;1.60;;
5553;SDS011;2800;49.528;8.666;2024-03-23T07:30:48;3.07;;;1.47;;
5553;SDS011;2800;49.528;8.666;2024-03-23T07:33:23;4.80;;;1.50;;
5553;SDS011;2800;49.528;8.666;2024-03-23T07:35:48;4.27;;;2.50;;
5553;SDS011;2800;49.528;8.666;2024-03-23T07:38:14;3.23;;;1.60;;
5553;SDS011;2800;49.528;8.666;2024-03-23T07:40:39;4.80;;;2.13;;
5553;SDS011;2800;49.528;8.666;2024-03-23T07:43:05;4.20;;;2.10;;
5553;SDS011;2800;49.528;8.666;2024-03-23T07:45:30;5.60;;;2.20;;
5553;SDS011;2800;49.528;8.666;2024-03-23T07:47:56;5.20;;;2.13;;
5553;SDS011;2800;49.528;8.666;2024-03-23T07:50:21;5.13;;;2.23;;
5553;SDS011;2800;49.528;8.666;2024-03-23T07:52:47;7.00;;;2.83;;
5553;SDS011;2800;49.528;8.666;2024-03-23T07:55:12;6.90;;;2.33;;
5553;SDS011;2800;49.528;8.666;2024-03-23T07:57:38;5.37;;;2.50;;
5553;SDS011;2800;49.528;8.666;2024-03-23T08:00:03;4.77;;;2.60;;
5553;SDS011;2800;49.528;8.666;2024-03-23T08:02:29;8.23;;;3.07;;
5553;SDS011;2800;49.528;8.666;2024-03-23T08:04:55;5.67;;;2.70;;
5553;SDS011;2800;49.528;8.666;2024-03-23T08:07:20;6.23;;;3.30;;
5553;SDS011;2800;49.528;8.666;2024-03-23T08:09:46;8.40;;;4.57;;
5553;SDS011;2800;49.528;8.666;2024-03-23T08:12:11;6.73;;;3.60;;
5553;SDS011;2800;49.528;8.666;2024-03-23T08:14:37;6.87;;;3.60;;
5553;SDS011;2800;49.528;8.666;2024-03-23T08:17:02;7.23;;;3.50;;
5553;SDS011;2800;49.528;8.666;2024-03-23T08:19:28;6.10;;;3.23;;
5553;SDS011;2800;49.528;8.666;2024-03-23T08:21:53;8.07;;;3.27;;
5553;SDS011;2800;49.528;8.666;2024-03-23T08:24:19;7.47;;;3.60;;
5553;SDS011;2800;49.528;8.666;2024-03-23T08:26:44;9.93;;;3.23;;
5553;SDS011;2800;49.528;8.666;2024-03-23T08:29:10;6.73;;;2.80;;
5553;SDS011;2800;49.528;8.666;2024-03-23T08:31:35;8.47;;;4.53;;
5553;SDS011;2800;49.528;8.666;2024-03-23T08:34:01;5.97;;;3.13;;
5553;SDS011;2800;49.528;8.666;2024-03-23T08:36:26;6.00;;;2.97;;
5553;SDS011;2800;49.528;8.666;2024-03-23T08:38:52;6.30;;;2.70;;
5553;SDS011;2800;49.528;8.666;2024-03-23T08:41:18;8.07;;;3.30;;
5553;SDS011;2800;49.528;8.666;2024-03-23T08:43:44;7.93;;;3.20;;
5553;SDS011;2800;49.528;8.666;2024-03-23T08:46:10;6.17;;;3.03;;
5553;SDS011;2800;49.528;8.666;2024-03-23T08:48:44;9.40;;;3.73;;
5553;SDS011;2800;49.528;8.666;2024-03-23T08:51:11;5.80;;;3.20;;
5553;SDS011;2800;49.528;8.666;2024-03-23T08:53:39;8.77;;;3.47;;
5553;SDS011;2800;49.528;8.666;2024-03-23T08:56:05;5.90;;;2.50;;
5553;SDS011;2800;49.528;8.666;2024-03-23T08:58:32;8.17;;;3.70;;
5553;SDS011;2800;49.528;8.666;2024-03-23T09:01:05;7.80;;;3.30;;
5553;SDS011;2800;49.528;8.666;2024-03-23T09:03:35;7.03;;;3.27;;
5553;SDS011;2800;49.528;8.666;2024-03-23T09:06:02;8.07;;;3.50;;
5553;SDS011;2800;49.528;8.666;2024-03-23T09:08:35;10.07;;;3.83;;
5553;SDS011;2800;49.528;8.666;2024-03-23T09:11:05;10.30;;;4.50;;
5553;SDS011;2800;49.528;8.666;2024-03-23T09:13:34;9.90;;;3.77;;
5553;SDS011;2800;49.528;8.666;2024-03-23T09:16:00;9.70;;;3.70;;
5553;SDS011;2800;49.528;8.666;2024-03-23T09:18:26;9.07;;;3.80;;
5553;SDS011;2800;49.528;8.666;2024-03-23T09:20:52;8.57;;;3.63;;
5553;SDS011;2800;49.528;8.666;2024-03-23T09:23:19;13.23;;;4.87;;
5553;SDS011;2800;49.528;8.666;2024-03-23T09:25:48;12.97;;;4.77;;
5553;SDS011;2800;49.528;8.666;2024-03-23T09:28:14;10.60;;;4.77;;
5553;SDS011;2800;49.528;8.666;2024-03-23T09:30:39;9.83;;;3.77;;
5553;SDS011;2800;49.528;8.666;2024-03-23T09:33:08;8.90;;;4.17;;
5553;SDS011;2800;49.528;8.666;2024-03-23T09:35:41;9.10;;;3.90;;
5553;SDS011;2800;49.528;8.666;2024-03-23T09:38:07;13.60;;;4.60;;
5553;SDS011;2800;49.528;8.666;2024-03-23T09:40:34;12.00;;;4.40;;
5553;SDS011;2800;49.528;8.666;2024-03-23T09:43:00;11.07;;;4.20;;
5553;SDS011;2800;49.528;8.666;2024-03-23T09:45:29;9.70;;;4.43;;
5553;SDS011;2800;49.528;8.666;2024-03-23T09:47:55;10.10;;;4.70;;
5553;SDS011;2800;49.528;8.666;2024-03-23T09:50:21;12.93;;;4.77;;
5553;SDS011;2800;49.528;8.666;2024-03-23T09:52:47;11.53;;;4.70;;
5553;SDS011;2800;49.528;8.666;2024-03-23T09:55:13;10.40;;;4.47;;
5553;SDS011;2800;49.528;8.666;2024-03-23T09:57:39;8.83;;;4.13;;
5553;SDS011;2800;49.528;8.666;2024-03-23T10:00:05;11.80;;;4.53;;
5553;SDS011;2800;49.528;8.666;2024-03-23T10:02:31;10.17;;;4.70;;
5553;SDS011;2800;49.528;8.666;2024-03-23T10:04:57;13.00;;;4.75;;
5553;SDS011;2800;49.528;8.666;2024-03-23T10:07:23;11.73;;;4.70;;
5553;SDS011;2800;49.528;8.666;2024-03-23T10:09:48;13.43;;;4.87;;
5553;SDS011;2800;49.528;8.666;2024-03-23T10:12:17;13.00;;;4.60;;
5553;SDS011;2800;49.528;8.666;2024-03-23T10:14:43;11.73;;;5.27;;
5553;SDS011;2800;49.528;8.666;2024-03-23T10:17:14;9.37;;;4.30;;
5553;SDS011;2800;49.528;8.666;2024-03-23T10:19:47;10.73;;;5.23;;
5553;SDS011;2800;49.528;8.666;2024-03-23T10:22:17;13.33;;;4.97;;
5553;SDS011;2800;49.528;8.666;2024-03-23T10:24:44;10.90;;;4.97;;
5553;SDS011;2800;49.528;8.666;2024-03-23T10:27:09;13.97;;;5.33;;
5553;SDS011;2800;49.528;8.666;2024-03-23T10:29:39;11.37;;;5.27;;
5553;SDS011;2800;49.528;8.666;2024-03-23T10:32:08;11.63;;;4.73;;
5553;SDS011;2800;49.528;8.666;2024-03-23T10:34:38;12.50;;;4.40;;
5553;SDS011;2800;49.528;8.666;2024-03-23T10:37:04;13.97;;;4.57;;
5553;SDS011;2800;49.528;8.666;2024-03-23T10:39:34;13.37;;;4.40;;
5553;SDS011;2800;49.528;8.666;2024-03-23T10:42:07;10.93;;;3.83;;
5553;SDS011;2800;49.528;8.666;2024-03-23T10:44:35;8.37;;;3.70;;
5553;SDS011;2800;49.528;8.666;2024-03-23T10:47:01;10.77;;;3.80;;
5553;SDS011;2800;49.528;8.666;2024-03-23T10:52:04;9.20;;;3.27;;
5553;SDS011;2800;49.528;8.666;2024-03-23T10:54:31;11.17;;;3.57;;
5553;SDS011;2800;49.528;8.666;2024-03-23T10:57:05;9.00;;;3.60;;
5553;SDS011;2800;49.528;8.666;2024-03-23T10:59:34;8.97;;;3.10;;
5553;SDS011;2800;49.528;8.666;2024-03-23T11:02:02;8.70;;;3.40;;
5553;SDS011;2800;49.528;8.666;2024-03-23T11:04:29;12.83;;;3.80;;
5553;SDS011;2800;49.528;8.666;2024-03-23T11:06:56;8.43;;;3.10;;
5553;SDS011;2800;49.528;8.666;2024-03-23T11:14:48;8.70;;;3.03;;
5553;SDS011;2800;49.528;8.666;2024-03-23T11:17:19;10.90;;;3.67;;
5553;SDS011;2800;49.528;8.666;2024-03-23T11:20:06;10.17;;;3.40;;
5553;SDS011;2800;49.528;8.666;2024-03-23T11:25:17;15.47;;;3.83;;
5553;SDS011;2800;49.528;8.666;2024-03-23T11:27:51;10.87;;;3.60;;
5553;SDS011;2800;49.528;8.666;2024-03-23T11:32:52;12.50;;;3.80;;
5553;SDS011;2800;49.528;8.666;2024-03-23T11:35:29;4.90;;;2.40;;
5553;SDS011;2800;49.528;8.666;2024-03-23T11:40:33;5.87;;;2.37;;
5553;SDS011;2800;49.528;8.666;2024-03-23T11:43:03;9.40;;;3.30;;
5553;SDS011;2800;49.528;8.666;2024-03-23T11:45:34;6.30;;;2.60;;
5553;SDS011;2800;49.528;8.666;2024-03-23T11:48:05;9.23;;;3.13;;
5553;SDS011;2800;49.528;8.666;2024-03-23T11:50:36;10.40;;;2.47;;
5553;SDS011;2800;49.528;8.666;2024-03-23T11:53:13;5.37;;;2.80;;
5553;SDS011;2800;49.528;8.666;2024-03-23T11:58:21;9.93;;;3.00;;
5553;SDS011;2800;49.528;8.666;2024-03-23T12:01:10;5.50;;;2.30;;
5553;SDS011;2800;49.528;8.666;2024-03-23T12:03:35;7.00;;;3.03;;
5553;SDS011;2800;49.528;8.666;2024-03-23T12:06:01;10.70;;;3.27;;
5553;SDS011;2800;49.528;8.666;2024-03-23T12:08:29;5.73;;;2.90;;
5553;SDS011;2800;49.528;8.666;2024-03-23T12:11:06;6.80;;;3.13;;
5553;SDS011;2800;49.528;8.666;2024-03-23T12:13:32;8.53;;;3.07;;
5553;SDS011;2800;49.528;8.666;2024-03-23T12:16:14;7.43;;;3.00;;
5553;SDS011;2800;49.528;8.666;2024-03-23T12:18:42;9.17;;;3.50;;
5553;SDS011;2800;49.528;8.666;2024-03-23T12:21:09;9.00;;;3.37;;
5553;SDS011;2800;49.528;8.666;2024-03-23T12:23:35;9.30;;;3.40;;
5553;SDS011;2800;49.528;8.666;2024-03-23T12:26:01;7.47;;;4.13;;
5553;SDS011;2800;49.528;8.666;2024-03-23T12:28:27;10.93;;;3.27;;
5553;SDS011;2800;49.528;8.666;2024-03-23T12:30:53;7.07;;;3.60;;
5553;SDS011;2800;49.528;8.666;2024-03-23T12:33:19;7.70;;;4.07;;
5553;SDS011;2800;49.528;8.666;2024-03-23T12:35:48;10.63;;;4.10;;
5553;SDS011;2800;49.528;8.666;2024-03-23T12:38:14;11.23;;;3.47;;
5553;SDS011;2800;49.528;8.666;2024-03-23T12:40:40;9.00;;;3.47;;
5553;SDS011;2800;49.528;8.666;2024-03-23T12:43:06;7.67;;;3.20;;
5553;SDS011;2800;49.528;8.666;2024-03-23T12:45:32;10.10;;;3.90;;
5553;SDS011;2800;49.528;8.666;2024-03-23T12:47:58;7.83;;;4.50;;
5553;SDS011;2800;49.528;8.666;2024-03-23T12:50:23;10.83;;;3.80;;
5553;SDS011;2800;49.528;8.666;2024-03-23T12:52:49;12.37;;;3.40;;
5553;SDS011;2800;49.528;8.666;2024-03-23T12:55:14;11.73;;;4.17;;
5553;SDS011;2800;49.528;8.666;2024-03-23T12:57:40;9.83;;;4.10;;
5553;SDS011;2800;49.528;8.666;2024-03-23T13:00:06;9.03;;;4.10;;
5553;SDS011;2800;49.528;8.666;2024-03-23T13:02:34;9.20;;;4.17;;
5553;SDS011;2800;49.528;8.666;2024-03-23T13:04:59;9.27;;;3.93;;
5553;SDS011;2800;49.528;8.666;2024-03-23T13:07:25;10.10;;;4.40;;
5553;SDS011;2800;49.528;8.666;2024-03-23T13:09:51;12.50;;;4.10;;
5553;SDS011;2800;49.528;8.666;2024-03-23T13:12:17;5.87;;;2.57;;
5553;SDS011;2800;49.528;8.666;2024-03-23T13:14:43;6.83;;;1.90;;
5553;SDS011;2800;49.528;8.666;2024-03-23T13:17:10;5.70;;;1.70;;
5553;SDS011;2800;49.528;8.666;2024-03-23T13:19:35;3.80;;;1.60;;
5553;SDS011;2800;49.528;8.666;2024-03-23T13:22:01;3.80;;;1.63;;
5553;SDS011;2800;49.528;8.666;2024-03-23T13:24:30;3.73;;;1.50;;
5553;SDS011;2800;49.528;8.666;2024-03-23T13:26:56;4.70;;;1.97;;
5553;SDS011;2800;49.528;8.666;2024-03-23T13:29:22;6.53;;;2.00;;
5553;SDS011;2800;49.528;8.666;2024-03-23T13:31:49;5.00;;;2.13;;
5553;SDS011;2800;49.528;8.666;2024-03-23T13:34:15;7.77;;;2.00;;
5553;SDS011;2800;49.528;8.666;2024-03-23T13:36:42;6.47;;;2.57;;
5553;SDS011;2800;49.528;8.666;2024-03-23T13:39:11;6.63;;;2.20;;
5553;SDS011;2800;49.528;8.666;2024-03-23T13:44:10;4.87;;;1.90;;
5553;SDS011;2800;49.528;8.666;2024-03-23T13:46:37;6.40;;;2.40;;
5553;SDS011;2800;49.528;8.666;2024-03-23T13:49:04;4.80;;;2.10;;
5553;SDS011;2800;49.528;8.666;2024-03-23T13:51:30;4.73;;;2.13;;
5553;SDS011;2800;49.528;8.666;2024-03-23T13:53:55;8.60;;;2.60;;
5553;SDS011;2800;49.528;8.666;2024-03-23T13:56:22;5.30;;;2.53;;
5553;SDS011;2800;49.528;8.666;2024-03-23T13:58:48;5.07;;;1.50;;
5553;SDS011;2800;49.528;8.666;2024-03-23T14:01:14;4.47;;;1.93;;
5553;SDS011;2800;49.528;8.666;2024-03-23T14:03:40;5.50;;;2.20;;
5553;SDS011;2800;49.528;8.666;2024-03-23T14:06:06;5.10;;;2.30;;
5553;SDS011;2800;49.528;8.666;2024-03-23T14:08:33;4.40;;;1.73;;
5553;SDS011;2800;49.528;8.666;2024-03-23T14:11:00;9.00;;;5.47;;
5553;SDS011;2800;49.528;8.666;2024-03-23T14:13:30;3.70;;;1.90;;
5553;SDS011;2800;49.528;8.666;2024-03-23T14:15:56;6.83;;;1.70;;
5553;SDS011;2800;49.528;8.666;2024-03-23T14:18:21;5.30;;;2.20;;
5553;SDS011;2800;49.528;8.666;2024-03-23T14:20:51;5.90;;;1.80;;
5553;SDS011;2800;49.528;8.666;2024-03-23T14:23:17;5.07;;;1.83;;
5553;SDS011;2800;49.528;8.666;2024-03-23T14:25:42;5.90;;;2.10;;
5553;SDS011;2800;49.528;8.666;2024-03-23T14:28:08;7.37;;;2.40;;
5553;SDS011;2800;49.528;8.666;2024-03-23T14:30:40;6.00;;;2.13;;
5553;SDS011;2800;49.528;8.666;2024-03-23T14:33:06;8.73;;;2.10;;
5553;SDS011;2800;49.528;8.666;2024-03-23T14:35:32;5.87;;;2.03;;
5553;SDS011;2800;49.528;8.666;2024-03-23T14:37:58;5.03;;;1.80;;
5553;SDS011;2800;49.528;8.666;2024-03-23T14:40:24;5.97;;;2.10;;
5553;SDS011;2800;49.528;8.666;2024-03-23T14:42:52;4.67;;;2.40;;
5553;SDS011;2800;49.528;8.666;2024-03-23T14:45:18;6.63;;;2.53;;
5553;SDS011;2800;49.528;8.666;2024-03-23T14:47:44;5.67;;;2.70;;
5553;SDS011;2800;49.528;8.666;2024-03-23T14:50:10;6.07;;;2.60;;
5553;SDS011;2800;49.528;8.666;2024-03-23T14:52:39;6.40;;;2.73;;
5553;SDS011;2800;49.528;8.666;2024-03-23T14:55:04;7.80;;;2.97;;
5553;SDS011;2800;49.528;8.666;2024-03-23T14:57:30;6.33;;;3.70;;
5553;SDS011;2800;49.528;8.666;2024-03-23T14:59:56;8.20;;;4.10;;
5553;SDS011;2800;49.528;8.666;2024-03-23T15:02:21;9.23;;;5.03;;
5553;SDS011;2800;49.528;8.666;2024-03-23T15:04:47;7.27;;;3.30;;
5553;SDS011;2800;49.528;8.666;2024-03-23T15:07:12;5.67;;;2.10;;
5553;SDS011;2800;49.528;8.666;2024-03-23T15:09:38;5.27;;;2.30;;
5553;SDS011;2800;49.528;8.666;2024-03-23T15:12:03;5.70;;;1.90;;
5553;SDS011;2800;49.528;8.666;2024-03-23T15:14:29;4.80;;;1.67;;
5553;SDS011;2800;49.528;8.666;2024-03-23T15:16:54;4.70;;;1.90;;
5553;SDS011;2800;49.528;8.666;2024-03-23T15:19:20;6.30;;;2.23;;
5553;SDS011;2800;49.528;8.666;2024-03-23T15:21:45;4.83;;;1.93;;
5553;SDS011;2800;49.528;8.666;2024-03-23T15:24:11;4.93;;;1.90;;
5553;SDS011;2800;49.528;8.666;2024-03-23T15:26:37;4.97;;;2.17;;
5553;SDS011;2800;49.528;8.666;2024-03-23T15:29:03;4.10;;;1.83;;
5553;SDS011;2800;49.528;8.666;2024-03-23T15:31:35;5.50;;;2.10;;
5553;SDS011;2800;49.528;8.666;2024-03-23T15:34:00;4.67;;;2.17;;
5553;SDS011;2800;49.528;8.666;2024-03-23T15:36:26;4.10;;;1.80;;
5553;SDS011;2800;49.528;8.666;2024-03-23T15:38:51;5.93;;;1.90;;
5553;SDS011;2800;49.528;8.666;2024-03-23T15:41:19;6.13;;;2.20;;
5553;SDS011;2800;49.528;8.666;2024-03-23T15:43:48;6.60;;;3.00;;
5553;SDS011;2800;49.528;8.666;2024-03-23T15:46:13;4.80;;;1.87;;
5553;SDS011;2800;49.528;8.666;2024-03-23T15:48:39;6.53;;;2.23;;
5553;SDS011;2800;49.528;8.666;2024-03-23T15:51:10;6.80;;;4.00;;
5553;SDS011;2800;49.528;8.666;2024-03-23T15:53:36;5.20;;;1.70;;
5553;SDS011;2800;49.528;8.666;2024-03-23T15:56:02;5.07;;;1.90;;
5553;SDS011;2800;49.528;8.666;2024-03-23T15:58:29;5.70;;;2.50;;
5553;SDS011;2800;49.528;8.666;2024-03-23T16:00:56;6.00;;;2.00;;
5553;SDS011;2800;49.528;8.666;2024-03-23T16:03:22;4.83;;;2.43;;
5553;SDS011;2800;49.528;8.666;2024-03-23T16:05:55;5.40;;;1.83;;
5553;SDS011;2800;49.528;8.666;2024-03-23T16:08:22;5.00;;;2.40;;
5553;SDS011;2800;49.528;8.666;2024-03-23T16:10:48;4.60;;;2.13;;
5553;SDS011;2800;49.528;8.666;2024-03-23T16:13:14;5.47;;;2.53;;
5553;SDS011;2800;49.528;8.666;2024-03-23T16:15:40;4.87;;;2.23;;
5553;SDS011;2800;49.528;8.666;2024-03-23T16:18:06;4.27;;;1.97;;
5553;SDS011;2800;49.528;8.666;2024-03-23T16:20:31;3.53;;;1.60;;